Mazara — MAZARA — position and weather

sailwx.info

Track history (hours):
 
Tides and Currents Weather Stations Pressure Air Temp Water Temp Dewpoint Dewpoint Depression Visibility Wind Speed Wind Dir Waves Ship Positions

Mazara

Last reported at 2018-Apr-18 04:02 UTC. Time now 2018-Apr-20 14:45 UTC.
Position S 27°52' E 153°24'.

Length 22 m.

Type: Pleasure craft. MMSI: 503062550.

Date/timePositionNaut miles runAvg speedWind from/ knotsBaromVisibWave heightAir tempDewpointWater temp
2018-Apr-18 04:02S 27°52' E 153°24'0 0.0
2018-Apr-18 04:00S 27°52' E 153°24'0 0.0
2018-Apr-18 02:52S 27°52' E 153°24'0 0.0
2018-Apr-18 02:12S 27°52' E 153°24'0 0.0
2018-Apr-18 01:58S 27°52' E 153°24'0 0.0
2018-Apr-18 01:26S 27°52' E 153°24'0 0.0
2018-Apr-18 01:00S 27°52' E 153°24'0 0.0
2018-Apr-18 00:22S 27°52' E 153°24'0 0.0
2018-Apr-17 06:25S 27°52' E 153°24'0 0.9
2018-Apr-17 06:00S 27°52' E 153°24'3 6.0
2018-Apr-17 05:30S 27°51' E 153°21'1 2.8
2018-Apr-17 04:59S 27°52' E 153°20'0 0.0
2018-Apr-17 04:29S 27°52' E 153°20'0 0.0
2018-Apr-17 03:59S 27°52' E 153°20'0 0.0
2018-Apr-17 03:29S 27°52' E 153°20'0 0.0
2018-Apr-17 02:59S 27°52' E 153°20'0 0.0
2018-Apr-17 02:29S 27°52' E 153°20'0 0.0
2018-Apr-17 01:59S 27°52' E 153°20'0 0.0
2018-Apr-17 01:29S 27°52' E 153°20'0 0.0
2018-Apr-17 00:59S 27°52' E 153°20'  
2018-Apr-12 22:31S 27°52' E 153°20'0 0.0
2018-Apr-12 22:25S 27°52' E 153°20'0 0.0
2018-Apr-11 21:49S 27°52' E 153°20'0 0.0
2018-Apr-11 06:02S 27°52' E 153°20'0 0.0
2018-Apr-11 03:56S 27°52' E 153°20'0 0.0
2018-Apr-11 00:12S 27°52' E 153°20'0 0.0
2018-Apr-11 00:00S 27°52' E 153°20'0 0.0
2018-Apr-10 23:24S 27°52' E 153°20'0 0.0
2018-Apr-10 22:55S 27°52' E 153°20'0 0.0
2018-Apr-10 22:22S 27°52' E 153°20'0 0.0
2018-Apr-10 21:55S 27°52' E 153°20'0 0.0
2018-Apr-10 21:28S 27°52' E 153°20'0 0.0
2018-Apr-10 20:29S 27°52' E 153°20'0 0.0
2018-Apr-10 05:49S 27°52' E 153°20'0 0.0
2018-Apr-10 05:07S 27°52' E 153°20'0 0.0
2018-Apr-10 04:49S 27°52' E 153°20'0 0.0
2018-Apr-10 04:22S 27°52' E 153°20'0 0.0
2018-Apr-10 03:58S 27°52' E 153°20'0 0.0
2018-Apr-10 03:20S 27°52' E 153°20'4 0.1
2018-Apr-08 08:44S 27°52' E 153°24'0 0.1
2018-Apr-08 08:20S 27°52' E 153°24'0 0.1
2018-Apr-08 07:58S 27°52' E 153°24'0 0.0
2018-Apr-08 07:30S 27°52' E 153°24'0 0.0
2018-Apr-08 06:28S 27°52' E 153°24'  
Track history (hours):
 
Tides and Currents Weather Stations Pressure Air Temp Water Temp Dewpoint Dewpoint Depression Visibility Wind Speed Wind Dir Waves Ship Positions

Mazara

Last reported at 2018-Apr-18 04:02 UTC. Time now 2018-Apr-20 14:45 UTC.
Position S 27°52' E 153°24'.

Length 22 m.

Type: Pleasure craft. MMSI: 503062550.

Date/timePositionNaut miles runAvg speedWind from/ knotsBaromVisibWave heightAir tempDewpointWater temp
2018-Apr-18 04:02S 27°52' E 153°24'0 0.0
2018-Apr-18 04:00S 27°52' E 153°24'0 0.0
2018-Apr-18 02:52S 27°52' E 153°24'0 0.0
2018-Apr-18 02:12S 27°52' E 153°24'0 0.0
2018-Apr-18 01:58S 27°52' E 153°24'0 0.0
2018-Apr-18 01:26S 27°52' E 153°24'0 0.0
2018-Apr-18 01:00S 27°52' E 153°24'0 0.0
2018-Apr-18 00:22S 27°52' E 153°24'0 0.0
2018-Apr-17 06:25S 27°52' E 153°24'0 0.9
2018-Apr-17 06:00S 27°52' E 153°24'3 6.0
2018-Apr-17 05:30S 27°51' E 153°21'1 2.8
2018-Apr-17 04:59S 27°52' E 153°20'0 0.0
2018-Apr-17 04:29S 27°52' E 153°20'0 0.0
2018-Apr-17 03:59S 27°52' E 153°20'0 0.0
2018-Apr-17 03:29S 27°52' E 153°20'0 0.0
2018-Apr-17 02:59S 27°52' E 153°20'0 0.0
2018-Apr-17 02:29S 27°52' E 153°20'0 0.0
2018-Apr-17 01:59S 27°52' E 153°20'0 0.0
2018-Apr-17 01:29S 27°52' E 153°20'0 0.0
2018-Apr-17 00:59S 27°52' E 153°20'  
2018-Apr-12 22:31S 27°52' E 153°20'0 0.0
2018-Apr-12 22:25S 27°52' E 153°20'0 0.0
2018-Apr-11 21:49S 27°52' E 153°20'0 0.0
2018-Apr-11 06:02S 27°52' E 153°20'0 0.0
2018-Apr-11 03:56S 27°52' E 153°20'0 0.0
2018-Apr-11 00:12S 27°52' E 153°20'0 0.0
2018-Apr-11 00:00S 27°52' E 153°20'0 0.0
2018-Apr-10 23:24S 27°52' E 153°20'0 0.0
2018-Apr-10 22:55S 27°52' E 153°20'0 0.0
2018-Apr-10 22:22S 27°52' E 153°20'0 0.0
2018-Apr-10 21:55S 27°52' E 153°20'0 0.0
2018-Apr-10 21:28S 27°52' E 153°20'0 0.0
2018-Apr-10 20:29S 27°52' E 153°20'0 0.0
2018-Apr-10 05:49S 27°52' E 153°20'0 0.0
2018-Apr-10 05:07S 27°52' E 153°20'0 0.0
2018-Apr-10 04:49S 27°52' E 153°20'0 0.0
2018-Apr-10 04:22S 27°52' E 153°20'0 0.0
2018-Apr-10 03:58S 27°52' E 153°20'0 0.0
2018-Apr-10 03:20S 27°52' E 153°20'4 0.1
2018-Apr-08 08:44S 27°52' E 153°24'0 0.1
2018-Apr-08 08:20S 27°52' E 153°24'0 0.1
2018-Apr-08 07:58S 27°52' E 153°24'0 0.0
2018-Apr-08 07:30S 27°52' E 153°24'0 0.0
2018-Apr-08 06:28S 27°52' E 153°24'  

Dump ship's entire track history